Time;durP1;ratioP1;P1;durP2;ratioP2;P2;SDS_P1;SDS_P2;PMS_P1;PMS_P2;Temp;Humidity;BMP_temperature;BMP_pressure;BME280_temperature;BME280_humidity;BME280_pressure;Samples;Min_cycle;Max_cycle;Signal;HPM_P1;HPM_P2
2023/10/16 00:01:31;;;;;;;5.65;1.60;;;;;;;6.11;89.68;101407.56;7387563;19;20385;-70
2023/10/16 00:03:59;;;;;;;4.65;1.70;;;;;;;6.09;89.64;101408.66;7390737;19;20359;-70
2023/10/16 00:06:26;;;;;;;4.72;1.70;;;;;;;6.06;89.73;101403.69;7391651;19;20361;-70
2023/10/16 00:08:53;;;;;;;5.05;1.30;;;;;;;6.01;89.98;101398.75;7391902;19;20680;-70
2023/10/16 00:11:24;;;;;;;5.50;1.52;;;;;;;6.01;89.87;101400.56;7389439;19;20360;-70
2023/10/16 00:13:56;;;;;;;5.55;1.33;;;;;;;5.98;90.23;101406.94;7392852;19;20721;-70
2023/10/16 00:16:23;;;;;;;7.95;1.85;;;;;;;5.94;90.23;101397.59;7391007;19;20750;-70
2023/10/16 00:18:53;;;;;;;6.88;1.80;;;;;;;5.88;90.91;101396.28;7389649;19;20344;-70
2023/10/16 00:21:21;;;;;;;5.57;1.83;;;;;;;5.89;90.82;101395.34;7391088;19;20361;-70
2023/10/16 00:23:50;;;;;;;5.07;1.50;;;;;;;5.89;91.01;101397.16;7391540;19;20336;-70
2023/10/16 00:26:21;;;;;;;6.70;1.90;;;;;;;5.88;91.13;101398.91;7389528;19;20839;-70
2023/10/16 00:31:42;;;;;;;8.30;1.70;;;;;;;5.87;91.10;101392.00;7389810;19;20423;-70
2023/10/16 00:34:10;;;;;;;5.30;1.70;;;;;;;5.88;91.28;101398.09;7392514;19;20443;-70
2023/10/16 00:36:37;;;;;;;5.47;1.70;;;;;;;5.87;91.32;101393.81;7393784;19;20386;-70
2023/10/16 00:39:13;;;;;;;5.60;1.90;;;;;;;5.84;91.35;101391.41;7389999;19;20369;-70
2023/10/16 00:41:44;;;;;;;5.22;1.73;;;;;;;5.84;91.67;101386.13;7392971;19;20369;-70
2023/10/16 00:44:11;;;;;;;6.28;1.70;;;;;;;5.84;91.64;101394.03;7386545;19;20481;-70
2023/10/16 00:46:38;;;;;;;5.57;1.73;;;;;;;5.82;91.42;101393.31;7381555;19;20360;-70
2023/10/16 00:49:06;;;;;;;5.10;1.70;;;;;;;5.80;91.42;101387.34;7390146;19;20502;-70
2023/10/16 00:51:36;;;;;;;5.88;1.83;;;;;;;5.79;91.56;101396.22;7392271;19;20368;-70
2023/10/16 00:54:16;;;;;;;5.65;1.83;;;;;;;5.78;91.83;101391.91;7392261;19;20333;-70
2023/10/16 00:56:51;;;;;;;5.72;1.92;;;;;;;5.77;91.68;101398.16;7394076;19;20453;-70
2023/10/16 00:59:23;;;;;;;5.70;2.00;;;;;;;5.76;91.68;101391.19;7398426;19;20740;-70
2023/10/16 01:02:13;;;;;;;5.53;1.70;;;;;;;5.75;91.86;101389.53;7395772;19;20373;-70
2023/10/16 01:04:41;;;;;;;6.40;1.73;;;;;;;5.72;91.92;101391.47;7393159;19;20382;-70
2023/10/16 01:07:09;;;;;;;6.55;1.80;;;;;;;5.71;92.29;101387.16;7394830;19;20375;-70
2023/10/16 01:09:36;;;;;;;5.35;1.50;;;;;;;5.71;92.49;101395.03;7393440;19;20424;-70
2023/10/16 01:12:07;;;;;;;7.85;2.10;;;;;;;5.70;92.37;101388.13;7395235;19;20882;-70
2023/10/16 01:14:35;;;;;;;4.95;1.70;;;;;;;5.68;92.43;101390.03;7397839;19;20347;-70
2023/10/16 01:17:03;;;;;;;6.05;1.75;;;;;;;5.66;92.12;101391.97;7394857;19;20507;-70
2023/10/16 01:19:31;;;;;;;6.65;1.77;;;;;;;5.64;92.30;101399.16;7395178;19;21276;-70
2023/10/16 01:22:00;;;;;;;5.18;1.60;;;;;;;5.61;92.27;101391.53;7394868;19;20369;-70
2023/10/16 01:24:29;;;;;;;5.53;1.75;;;;;;;5.59;92.40;101385.53;7395141;19;20382;-70
2023/10/16 01:27:06;;;;;;;5.97;1.98;;;;;;;5.56;92.71;101393.66;7395100;19;20369;-70
2023/10/16 01:29:33;;;;;;;6.43;2.00;;;;;;;5.54;92.83;101390.31;7395751;19;20352;-70
2023/10/16 01:32:01;;;;;;;6.85;1.92;;;;;;;5.52;92.84;101392.25;7393151;19;20395;-70
2023/10/16 01:34:31;;;;;;;7.65;1.80;;;;;;;5.48;93.05;101388.19;7396208;19;20746;-70
2023/10/16 01:37:07;;;;;;;6.28;1.83;;;;;;;5.48;93.38;101394.31;7391560;19;20396;-70
2023/10/16 01:39:50;;;;;;;6.05;1.80;;;;;;;5.47;93.42;101386.53;7390252;19;20788;-70
2023/10/16 01:42:18;;;;;;;5.90;1.87;;;;;;;5.47;93.50;101382.09;7395630;19;20445;-70
2023/10/16 01:44:51;;;;;;;5.18;1.48;;;;;;;5.48;93.60;101382.94;7394141;19;20364;-70
2023/10/16 01:47:19;;;;;;;4.55;1.70;;;;;;;5.47;93.71;101376.84;7392306;19;20363;-70
2023/10/16 01:49:50;;;;;;;6.50;1.98;;;;;;;5.47;93.54;101376.84;7392916;19;20764;-70
2023/10/16 01:52:17;;;;;;;4.90;1.60;;;;;;;5.47;93.67;101370.75;7396368;19;20371;-70
2023/10/16 01:54:45;;;;;;;5.38;1.90;;;;;;;5.46;93.58;101379.59;7394663;19;20371;-70
2023/10/16 01:57:14;;;;;;;7.07;2.00;;;;;;;5.44;93.90;101368.34;7394285;19;20381;-70
2023/10/16 01:59:45;;;;;;;7.32;1.80;;;;;;;5.42;93.75;101368.50;7393325;19;20372;-70
2023/10/16 02:02:13;;;;;;;7.35;2.00;;;;;;;5.41;94.22;101360.72;7391414;19;20872;-70
2023/10/16 02:04:41;;;;;;;7.30;1.90;;;;;;;5.42;94.12;101367.63;7392563;19;20709;-70
2023/10/16 02:07:14;;;;;;;5.43;1.77;;;;;;;5.40;94.50;101359.88;7392576;19;20852;-70
2023/10/16 02:09:40;;;;;;;4.87;1.60;;;;;;;5.40;94.76;101364.28;7393788;19;21595;-70
2023/10/16 02:12:14;;;;;;;6.85;1.75;;;;;;;5.40;94.68;101366.91;7393199;19;20420;-70
2023/10/16 02:14:44;;;;;;;5.68;1.77;;;;;;;5.39;95.02;101365.28;7394595;19;20384;-70
2023/10/16 02:17:23;;;;;;;7.57;1.60;;;;;;;5.41;95.53;101372.06;7389557;19;20746;-70
2023/10/16 02:19:50;;;;;;;5.88;1.73;;;;;;;5.44;96.01;101365.72;7395234;19;20357;-70
2023/10/16 02:22:18;;;;;;;5.22;1.60;;;;;;;5.48;95.63;101361.88;7394618;19;20767;-70
2023/10/16 02:24:48;;;;;;;6.43;1.90;;;;;;;5.51;95.62;101372.16;7390565;19;20369;-70
2023/10/16 02:27:20;;;;;;;6.38;1.42;;;;;;;5.54;95.33;101369.28;7392576;19;20364;-70
2023/10/16 02:29:49;;;;;;;5.88;1.60;;;;;;;5.57;95.64;101366.41;7392658;19;20347;-70
2023/10/16 02:32:16;;;;;;;7.40;1.63;;;;;;;5.60;95.52;101366.16;7391455;19;20386;-70
2023/10/16 02:34:43;;;;;;;7.28;1.80;;;;;;;5.64;95.34;101366.75;7388683;19;20353;-70
2023/10/16 02:37:13;;;;;;;7.07;1.85;;;;;;;5.67;95.70;101367.31;7393639;19;20344;-70
2023/10/16 02:39:44;;;;;;;5.18;1.70;;;;;;;5.72;95.78;101362.50;7389340;19;20376;-70
2023/10/16 02:42:14;;;;;;;6.43;1.65;;;;;;;5.79;95.31;101365.47;7392731;19;20349;-70
2023/10/16 02:44:49;;;;;;;6.85;1.70;;;;;;;5.83;95.63;101356.34;7393652;19;20337;-70
2023/10/16 02:47:25;;;;;;;5.30;1.53;;;;;;;5.91;95.02;101358.34;7393359;19;20364;-70
2023/10/16 02:49:56;;;;;;;6.50;1.63;;;;;;;5.97;95.10;101355.25;7391883;19;20369;-70
2023/10/16 02:52:24;;;;;;;6.00;1.50;;;;;;;6.02;94.71;101355.69;7388908;19;20364;-70
2023/10/16 02:54:56;;;;;;;5.93;1.90;;;;;;;6.09;94.24;101348.91;7389887;19;20372;-70
2023/10/16 02:57:26;;;;;;;4.00;1.67;;;;;;;6.12;93.93;101346.03;7393393;19;20380;-70
2023/10/16 02:59:53;;;;;;;5.18;1.70;;;;;;;6.14;93.94;101353.78;7391574;19;20711;-70
2023/10/16 03:02:24;;;;;;;7.63;1.55;;;;;;;6.16;93.63;101346.59;7389087;19;20395;-70
2023/10/16 03:04:51;;;;;;;5.22;1.50;;;;;;;6.15;93.97;101354.66;7391663;19;20376;-70
2023/10/16 03:07:20;;;;;;;6.30;1.65;;;;;;;6.20;93.59;101352.44;7392760;19;20373;-70
2023/10/16 03:09:52;;;;;;;7.50;1.65;;;;;;;6.22;93.46;101353.16;7390843;19;20340;-70
2023/10/16 03:12:22;;;;;;;5.25;1.58;;;;;;;6.22;93.24;101355.78;7390417;19;20368;-70
2023/10/16 03:14:54;;;;;;;6.33;1.80;;;;;;;6.19;93.14;101350.78;7392336;19;20885;-70
2023/10/16 03:19:57;;;;;;;6.27;1.87;;;;;;;6.19;93.28;101356.88;7391691;19;20888;-70
2023/10/16 03:22:24;;;;;;;5.20;1.50;;;;;;;6.18;93.08;101354.38;7392370;19;20752;-70
2023/10/16 03:24:52;;;;;;;7.67;1.83;;;;;;;6.18;92.90;101354.38;7389112;19;20391;-70
2023/10/16 03:27:31;;;;;;;5.40;1.67;;;;;;;6.17;93.18;101365.91;7391909;19;20379;-70
2023/10/16 03:29:58;;;;;;;5.47;1.52;;;;;;;6.13;93.51;101368.78;7389844;19;20344;-70
2023/10/16 03:32:28;;;;;;;5.65;1.70;;;;;;;6.11;93.75;101360.16;7390159;19;20401;-70
2023/10/16 03:34:57;;;;;;;6.78;2.05;;;;;;;6.11;93.51;101362.78;7390150;19;20388;-70
2023/10/16 03:37:24;;;;;;;4.75;1.63;;;;;;;6.10;93.52;101369.03;7391079;19;20373;-70
2023/10/16 03:39:56;;;;;;;7.70;1.88;;;;;;;6.08;93.41;101360.44;7389716;19;20357;-70
2023/10/16 03:42:23;;;;;;;4.63;1.60;;;;;;;6.06;93.56;101362.34;7386859;19;20341;-70
2023/10/16 03:44:50;;;;;;;5.95;1.73;;;;;;;6.06;93.64;101364.16;7387385;19;20367;-70
2023/10/16 03:47:19;;;;;;;5.85;2.13;;;;;;;6.06;93.91;101372.91;7389284;19;20348;-70
2023/10/16 03:49:46;;;;;;;6.20;1.70;;;;;;;6.04;94.25;101369.56;7388208;19;20802;-70
2023/10/16 03:52:13;;;;;;;6.68;1.92;;;;;;;6.05;93.75;101365.94;7388822;19;20389;-70
2023/10/16 03:54:41;;;;;;;5.10;1.43;;;;;;;6.04;94.00;101369.56;7388718;19;21225;-70
2023/10/16 03:57:11;;;;;;;6.25;1.80;;;;;;;6.01;94.18;101367.16;7388394;19;20376;-70
2023/10/16 03:59:42;;;;;;;5.85;1.60;;;;;;;5.99;94.50;101366.44;7391596;19;20357;-70
2023/10/16 04:02:16;;;;;;;6.20;2.00;;;;;;;5.97;94.46;101368.41;7388769;19;20357;-70
2023/10/16 04:04:43;;;;;;;5.05;1.80;;;;;;;5.99;94.79;101361.19;7390990;19;20891;-70
2023/10/16 04:07:14;;;;;;;7.68;2.20;;;;;;;5.97;94.96;101363.16;7389334;19;20381;-70
2023/10/16 04:09:49;;;;;;;5.22;1.73;;;;;;;5.98;95.19;101366.59;7388104;19;20399;-70
2023/10/16 04:12:21;;;;;;;6.00;1.55;;;;;;;5.98;95.18;101367.44;7389587;19;20360;-70
2023/10/16 04:15:04;;;;;;;4.63;1.70;;;;;;;6.01;95.17;101359.25;7390081;19;20339;-70
2023/10/16 04:17:34;;;;;;;4.95;1.80;;;;;;;6.01;95.53;101367.16;7384882;19;20781;-70
2023/10/16 04:20:30;;;;;;;6.70;2.00;;;;;;;6.04;95.69;101366.09;7390104;19;20363;-70
2023/10/16 04:22:58;;;;;;;5.70;1.90;;;;;;;6.08;95.59;101364.88;7388409;19;20706;-70
2023/10/16 04:25:33;;;;;;;6.25;1.80;;;;;;;6.13;95.68;101360.88;7399063;19;20352;-70
2023/10/16 04:28:18;;;;;;;6.07;2.08;;;;;;;6.21;95.50;101359.41;7398024;19;20328;-70
2023/10/16 04:30:47;;;;;;;7.07;1.80;;;;;;;6.27;95.53;101361.53;7396519;19;20999;-70
2023/10/16 04:33:23;;;;;;;7.78;1.98;;;;;;;6.34;95.22;101365.28;7397760;19;20344;-70
2023/10/16 04:38:30;;;;;;;4.95;1.80;;;;;;;6.48;95.00;101367.59;7397927;19;20711;-71
2023/10/16 04:49:28;;;;;;;4.43;1.90;;;;;;;6.73;93.97;101360.19;7394702;19;20437;-70
2023/10/16 04:52:06;;;;;;;5.68;1.92;;;;;;;6.71;93.66;101360.31;7396467;19;20665;-71
2023/10/16 04:59:59;;;;;;;4.65;1.73;;;;;;;6.85;93.27;101359.13;7400222;19;20386;-70
2023/10/16 05:02:51;;;;;;;5.93;1.65;;;;;;;6.91;93.07;101355.13;7394630;19;20368;-70
2023/10/16 05:05:56;;;;;;;6.45;2.05;;;;;;;6.96;92.71;101349.44;7397558;19;20364;-70
2023/10/16 05:08:39;;;;;;;5.22;1.58;;;;;;;7.01;92.50;101352.47;7396564;19;20377;-70
2023/10/16 05:17:06;;;;;;;5.30;1.83;;;;;;;7.03;92.40;101347.91;7396132;19;20354;-70
2023/10/16 05:19:16;;;;;;;4.95;1.80;;;;;;;7.08;92.21;101348.34;7395320;19;20320;-70
2023/10/16 05:22:02;;;;;;;5.60;1.40;;;;;;;7.08;92.09;101346.53;7395817;19;20855;-70
2023/10/16 06:14:20;;;;;;;5.13;1.63;;;;;;;7.59;91.03;101378.09;7392783;19;20820;-75
2023/10/16 06:16:53;;;;;;;3.22;1.38;;;;;;;7.60;90.91;101375.34;7395630;19;20361;-75
2023/10/16 06:19:22;;;;;;;5.40;1.52;;;;;;;7.65;90.88;101380.19;7397137;19;20392;-75
2023/10/16 06:21:56;;;;;;;4.63;1.40;;;;;;;7.68;90.92;101372.03;7393671;19;20915;-75
2023/10/16 06:24:38;;;;;;;6.30;1.48;;;;;;;7.71;90.95;101377.88;7392345;19;20382;-75
2023/10/16 06:27:10;;;;;;;6.30;1.60;;;;;;;7.73;90.74;101381.16;7396256;19;20368;-75
2023/10/16 06:29:51;;;;;;;3.28;1.38;;;;;;;7.80;90.63;101376.19;7395883;19;20340;-75
2023/10/16 06:32:21;;;;;;;3.38;1.20;;;;;;;7.86;90.56;101377.41;7391075;19;20360;-75
2023/10/16 06:34:48;;;;;;;5.13;1.50;;;;;;;7.90;90.43;101382.28;7389550;19;20438;-75
2023/10/16 06:37:19;;;;;;;5.13;1.42;;;;;;;7.95;90.09;101381.88;7386808;19;20362;-75
2023/10/16 06:39:47;;;;;;;6.10;1.50;;;;;;;7.97;89.88;101388.69;7393487;19;20365;-75
2023/10/16 06:42:17;;;;;;;4.75;1.40;;;;;;;8.04;89.92;101388.94;7396427;19;20371;-75
2023/10/16 06:44:54;;;;;;;4.00;1.30;;;;;;;8.10;89.98;101377.81;7392069;19;20408;-75
2023/10/16 06:47:37;;;;;;;5.25;1.45;;;;;;;8.17;89.43;101389.47;7390974;19;20415;-75
2023/10/16 06:50:34;;;;;;;4.15;1.50;;;;;;;8.23;89.12;101392.53;7392905;19;20405;-75
2023/10/16 06:53:00;;;;;;;6.70;2.80;;;;;;;8.30;89.41;101388.34;7391492;19;20351;-75
2023/10/16 06:55:27;;;;;;;5.60;2.50;;;;;;;8.34;88.61;101400.28;7394235;19;20438;-75
2023/10/16 06:57:54;;;;;;;6.03;2.17;;;;;;;8.36;88.43;101395.69;7394917;19;20345;-75
2023/10/16 07:00:27;;;;;;;5.70;2.60;;;;;;;8.40;88.39;101399.72;7394130;19;20365;-75
2023/10/16 07:02:55;;;;;;;5.60;1.98;;;;;;;8.38;88.06;101402.50;7389995;19;20370;-75
2023/10/16 07:05:24;;;;;;;4.97;2.00;;;;;;;8.39;88.53;101403.34;7390631;19;20390;-75
2023/10/16 07:07:56;;;;;;;4.70;1.70;;;;;;;8.39;88.44;101403.34;7394380;19;20366;-74
2023/10/16 07:10:25;;;;;;;6.03;2.17;;;;;;;8.43;88.98;101399.47;7392806;19;20411;-74
2023/10/16 07:12:58;;;;;;;4.18;1.90;;;;;;;8.46;89.12;101391.25;7391736;19;20401;-74
2023/10/16 07:15:29;;;;;;;3.72;1.90;;;;;;;8.50;89.56;101395.28;7392857;19;20450;-74
2023/10/16 07:18:05;;;;;;;4.97;1.90;;;;;;;8.55;90.30;101386.91;7391320;19;20409;-74
2023/10/16 07:20:44;;;;;;;5.63;2.20;;;;;;;8.56;90.49;101394.72;7391041;19;20386;-75
2023/10/16 07:23:11;;;;;;;5.10;1.95;;;;;;;8.57;90.54;101391.06;7390976;19;20419;-74
2023/10/16 07:25:47;;;;;;;6.85;2.15;;;;;;;8.67;90.82;101398.13;7395363;19;20372;-74
2023/10/16 07:28:16;;;;;;;6.60;2.47;;;;;;;8.74;90.76;101389.47;7392733;19;20398;-74
2023/10/16 07:30:44;;;;;;;4.57;1.80;;;;;;;8.86;90.94;101390.13;7392107;19;20498;-74
2023/10/16 07:33:14;;;;;;;4.10;1.65;;;;;;;8.96;90.49;101393.53;7393056;19;20712;-74
2023/10/16 07:35:45;;;;;;;3.47;1.60;;;;;;;9.01;89.75;101393.13;7392965;19;20394;-74
2023/10/16 07:38:19;;;;;;;4.90;1.60;;;;;;;9.08;90.03;101393.34;7390395;19;20398;-74
2023/10/16 07:40:53;;;;;;;5.00;1.75;;;;;;;9.20;89.64;101392.16;7392078;19;20924;-74
2023/10/16 07:43:27;;;;;;;4.70;1.88;;;;;;;9.27;89.60;101392.41;7392186;19;20423;-74
2023/10/16 07:46:16;;;;;;;4.25;1.50;;;;;;;9.32;88.92;101390.13;7394492;19;20755;-74
2023/10/16 07:48:51;;;;;;;4.57;1.50;;;;;;;9.32;87.97;101401.56;7390330;19;20501;-74
2023/10/16 07:51:25;;;;;;;4.53;1.52;;;;;;;9.36;88.00;101397.63;7391143;19;20390;-74
2023/10/16 07:53:53;;;;;;;4.65;1.48;;;;;;;9.36;87.70;101397.63;7387989;19;20440;-75
2023/10/16 07:58:56;;;;;;;4.83;1.33;;;;;;;9.46;87.72;101388.81;7393635;19;20387;-74
2023/10/16 08:01:36;;;;;;;3.17;1.33;;;;;;;9.47;87.46;101399.22;7401615;19;20386;-74
2023/10/16 08:04:07;;;;;;;5.03;1.58;;;;;;;9.54;87.59;101394.16;7398037;19;20360;-74
2023/10/16 08:06:39;;;;;;;5.83;1.40;;;;;;;9.60;87.36;101398.84;7399030;19;20343;-74
2023/10/16 08:12:12;;;;;;;4.15;1.30;;;;;;;9.80;86.25;101403.03;7400305;19;20356;-74
2023/10/16 08:14:42;;;;;;;5.07;1.58;;;;;;;9.90;85.81;101399.44;7396669;19;20715;-74
2023/10/16 08:17:14;;;;;;;5.05;1.60;;;;;;;10.00;86.17;101408.16;7398696;19;20344;-74
2023/10/16 08:19:44;;;;;;;3.60;1.30;;;;;;;10.11;85.59;101397.28;7397688;19;20376;-74
2023/10/16 08:22:15;;;;;;;4.38;1.50;;;;;;;10.20;85.05;101400.84;7400749;19;20352;-75
2023/10/16 08:24:57;;;;;;;5.32;1.40;;;;;;;10.25;83.29;101418.94;7394832;19;20390;-75
2023/10/16 08:30:19;;;;;;;5.43;1.40;;;;;;;10.27;83.35;101411.66;7397504;19;20344;-75
2023/10/16 08:35:19;;;;;;;5.20;1.45;;;;;;;10.20;82.59;101417.59;7396774;19;20440;-75
2023/10/16 08:38:12;;;;;;;4.20;1.30;;;;;;;10.26;82.38;101415.28;7398505;19;20344;-75
2023/10/16 08:40:42;;;;;;;4.65;1.63;;;;;;;10.34;82.57;101412.72;7399235;19;20356;-75
2023/10/16 08:43:16;;;;;;;3.03;1.20;;;;;;;10.40;82.60;101423.56;7399130;19;20879;-75
2023/10/16 08:45:48;;;;;;;5.00;1.55;;;;;;;10.39;81.72;101419.25;7387876;19;20376;-75
2023/10/16 08:48:17;;;;;;;4.43;1.67;;;;;;;10.47;82.56;101421.09;7394215;19;20378;-75
2023/10/16 08:50:57;;;;;;;3.87;1.50;;;;;;;10.54;81.98;101424.81;7391972;19;20449;-74
2023/10/16 08:53:30;;;;;;;5.20;1.77;;;;;;;10.54;81.63;101430.13;7395600;19;20382;-75
2023/10/16 08:56:07;;;;;;;7.07;1.83;;;;;;;10.56;82.18;101421.97;7396679;19;20385;-75
2023/10/16 08:58:44;;;;;;;5.13;1.45;;;;;;;10.50;81.63;101418.16;7392003;19;20364;-75
2023/10/16 09:01:14;;;;;;;5.20;1.92;;;;;;;10.54;82.02;101423.94;7396837;19;20702;-75
2023/10/16 09:03:49;;;;;;;5.65;1.80;;;;;;;10.51;81.82;101424.28;7397440;19;20385;-75
2023/10/16 09:06:26;;;;;;;5.32;1.67;;;;;;;10.55;81.88;101426.47;7397887;19;20360;-75
2023/10/16 09:08:54;;;;;;;4.38;1.50;;;;;;;10.61;82.18;101425.84;7396591;19;20439;-75
2023/10/16 09:11:24;;;;;;;4.97;1.80;;;;;;;10.64;81.87;101424.69;7394012;19;20367;-75
2023/10/16 09:13:52;;;;;;;3.20;1.70;;;;;;;10.64;81.35;101434.47;7396896;19;20364;-75
2023/10/16 09:16:24;;;;;;;4.35;1.83;;;;;;;10.65;81.65;101428.16;7395828;19;20395;-75
2023/10/16 09:18:57;;;;;;;6.10;1.95;;;;;;;10.66;81.49;101430.66;7394213;19;20340;-75
2023/10/16 09:21:30;;;;;;;4.07;1.70;;;;;;;10.64;81.47;101445.09;7381489;19;20360;-75
2023/10/16 09:24:01;;;;;;;5.22;1.80;;;;;;;10.64;81.52;101445.09;7395659;19;20886;-75
2023/10/16 09:26:37;;;;;;;4.25;1.80;;;;;;;10.60;81.29;101440.09;7394415;19;20368;-75
2023/10/16 09:29:14;;;;;;;4.85;1.90;;;;;;;10.58;81.76;101435.91;7395434;19;20693;-75
2023/10/16 09:31:43;;;;;;;4.07;1.73;;;;;;;10.61;81.66;101436.44;7394753;19;20382;-75
2023/10/16 09:34:17;;;;;;;6.70;2.05;;;;;;;10.75;81.76;101439.50;7396880;19;20356;-75
2023/10/16 09:37:14;;;;;;;5.78;2.10;;;;;;;10.84;80.80;101440.38;7395163;19;20368;-75
2023/10/16 09:39:40;;;;;;;5.05;1.80;;;;;;;11.00;81.14;101435.97;7390710;19;20379;-74
2023/10/16 09:42:12;;;;;;;5.63;1.85;;;;;;;11.12;80.18;101428.56;7395746;19;20333;-74
2023/10/16 09:44:56;;;;;;;5.28;1.98;;;;;;;11.13;79.32;101445.31;7395190;19;20364;-75
2023/10/16 09:47:26;;;;;;;4.90;1.90;;;;;;;11.25;79.19;101436.06;7397680;19;21004;-75
2023/10/16 09:49:55;;;;;;;4.70;1.80;;;;;;;11.47;79.63;101445.25;7393077;19;20454;-75
2023/10/16 09:52:22;;;;;;;4.30;1.88;;;;;;;11.63;78.62;101445.31;7394425;19;20428;-75
2023/10/16 09:54:51;;;;;;;4.82;1.90;;;;;;;11.72;77.46;101440.81;7388581;19;20377;-75
2023/10/16 09:57:22;;;;;;;4.40;1.73;;;;;;;11.79;77.04;101441.84;7393547;19;20859;-75
2023/10/16 09:59:54;;;;;;;4.15;2.03;;;;;;;11.95;77.05;101435.72;7392403;19;20351;-75
2023/10/16 10:02:35;;;;;;;3.92;1.90;;;;;;;12.06;76.68;101431.91;7392335;19;20698;-75
2023/10/16 10:05:09;;;;;;;5.30;2.00;;;;;;;12.09;76.26;101425.41;7392102;19;20372;-75
2023/10/16 10:07:47;;;;;;;5.00;2.03;;;;;;;12.19;76.33;101432.22;7394960;19;20734;-75
2023/10/16 10:13:09;;;;;;;4.50;2.10;;;;;;;12.15;75.39;101424.75;7396081;19;20675;-75
2023/10/16 10:15:45;;;;;;;4.35;2.35;;;;;;;12.07;75.03;101422.09;7395275;19;20892;-75
2023/10/16 10:18:32;;;;;;;3.42;1.88;;;;;;;12.08;75.62;101421.94;7393442;19;20372;-75
2023/10/16 10:21:01;;;;;;;4.53;1.70;;;;;;;12.06;76.36;101428.44;7395718;19;20368;-75
2023/10/16 10:23:32;;;;;;;4.50;1.90;;;;;;;12.18;75.44;101425.25;7393887;19;20381;-75
2023/10/16 10:26:07;;;;;;;4.78;1.88;;;;;;;12.30;75.18;101430.22;7393264;19;20379;-75
2023/10/16 10:28:38;;;;;;;5.22;1.77;;;;;;;12.50;75.38;101428.06;7394811;19;20337;-75
2023/10/16 10:31:05;;;;;;;4.60;1.90;;;;;;;12.60;74.52;101440.16;7395219;19;20364;-75
2023/10/16 10:33:42;;;;;;;5.70;2.28;;;;;;;12.71;73.73;101419.50;7393419;19;20333;-75
2023/10/16 10:36:43;;;;;;;4.68;2.47;;;;;;;12.78;72.52;101431.13;7395018;19;20395;-75
2023/10/16 10:42:10;;;;;;;5.13;2.00;;;;;;;12.98;71.63;101416.38;7395410;19;20368;-75
2023/10/16 10:44:54;;;;;;;5.20;2.33;;;;;;;12.95;71.01;101427.41;7394176;19;20364;-75
2023/10/16 10:47:31;;;;;;;4.32;2.25;;;;;;;12.90;71.75;101416.44;7391162;19;20362;-75
2023/10/16 10:50:00;;;;;;;6.00;2.47;;;;;;;12.78;71.50;101415.16;7393188;19;20382;-75
2023/10/16 10:52:32;;;;;;;4.78;1.90;;;;;;;12.58;72.88;101409.38;7390726;19;20371;-75
2023/10/16 10:55:06;;;;;;;6.30;2.40;;;;;;;12.41;72.56;101406.78;7393463;19;20340;-75
2023/10/16 10:57:34;;;;;;;4.28;2.40;;;;;;;12.28;73.70;101408.28;7394059;19;20360;-75
2023/10/16 11:05:22;;;;;;;5.85;3.63;;;;;;;12.19;74.54;101405.63;7392630;19;20748;-75
2023/10/16 11:10:44;;;;;;;3.13;2.20;;;;;;;12.15;74.74;101408.78;7392923;19;20428;-75
2023/10/16 11:13:13;;;;;;;4.60;2.55;;;;;;;12.18;74.04;101400.50;7389445;19;20352;-75
2023/10/16 11:15:48;;;;;;;5.47;2.85;;;;;;;12.68;74.12;101401.22;7395593;19;20382;-75
2023/10/16 11:18:21;;;;;;;3.93;2.37;;;;;;;13.14;70.98;101393.38;7393257;19;20388;-75
2023/10/16 11:20:50;;;;;;;4.55;2.22;;;;;;;13.37;69.39;101383.59;7390513;19;20824;-75
2023/10/16 11:23:18;;;;;;;4.82;2.08;;;;;;;13.37;69.13;101380.13;7391199;19;20355;-75
2023/10/16 11:25:47;;;;;;;3.72;1.92;;;;;;;13.28;68.88;101381.94;7391791;19;20364;-75
2023/10/16 11:28:20;;;;;;;4.30;2.00;;;;;;;13.09;69.91;101382.38;7394437;19;20411;-75
2023/10/16 11:30:56;;;;;;;4.50;1.77;;;;;;;12.89;71.89;101388.16;7394497;19;20443;-75
2023/10/16 11:33:27;;;;;;;3.83;1.92;;;;;;;12.78;72.87;101400.00;7389660;19;20361;-75
2023/10/16 11:36:02;;;;;;;4.85;1.98;;;;;;;12.62;73.52;101395.59;7392185;19;20394;-75
2023/10/16 11:38:34;;;;;;;4.32;2.00;;;;;;;12.46;74.15;101394.78;7389819;19;20355;-75
2023/10/16 11:41:12;;;;;;;4.68;2.00;;;;;;;12.39;74.93;101398.13;7393048;19;20364;-75
2023/10/16 11:43:51;;;;;;;6.32;1.70;;;;;;;12.35;74.85;101395.97;7388680;19;20877;-75
2023/10/16 11:51:48;;;;;;;4.07;1.40;;;;;;;12.31;75.63;101407.97;7390085;19;20364;-75
2023/10/16 11:54:20;;;;;;;3.13;1.20;;;;;;;12.08;78.14;101408.63;7389121;19;20356;-76
2023/10/16 11:56:48;;;;;;;4.03;1.00;;;;;;;11.85;79.55;101411.09;7390686;19;20324;-76
2023/10/16 11:59:19;;;;;;;4.00;1.20;;;;;;;11.71;80.86;101404.63;7385331;19;20764;-75
2023/10/16 12:01:46;;;;;;;2.70;0.70;;;;;;;11.51;80.22;101413.88;7388283;19;20363;-75
2023/10/16 12:04:29;;;;;;;6.22;1.00;;;;;;;11.35;80.50;101407.56;7390082;19;20333;-75
2023/10/16 12:06:58;;;;;;;2.58;0.90;;;;;;;11.27;80.61;101399.56;7392935;19;20745;-75
2023/10/16 12:09:27;;;;;;;4.73;0.90;;;;;;;11.20;80.67;101403.88;7391066;19;20428;-75
2023/10/16 12:11:55;;;;;;;3.23;1.00;;;;;;;11.22;81.52;101402.72;7387147;19;20380;-75
2023/10/16 12:14:23;;;;;;;3.35;1.30;;;;;;;11.20;82.63;101398.56;7390209;19;20352;-75
2023/10/16 12:16:52;;;;;;;3.45;1.20;;;;;;;11.25;82.84;101398.88;7390905;19;20356;-75
2023/10/16 12:19:19;;;;;;;4.07;1.23;;;;;;;11.32;82.37;101396.41;7387639;19;20375;-75
2023/10/16 12:21:53;;;;;;;4.15;1.20;;;;;;;11.47;83.35;101388.63;7390709;19;20452;-75
2023/10/16 12:24:20;;;;;;;2.57;1.20;;;;;;;11.63;83.33;101383.34;7387976;19;20912;-75
2023/10/16 12:26:47;;;;;;;3.20;1.40;;;;;;;11.87;84.43;101392.34;7383711;19;20359;-75
2023/10/16 12:29:14;;;;;;;3.42;1.50;;;;;;;12.39;83.10;101392.00;7387866;19;20331;-75
2023/10/16 12:31:41;;;;;;;2.97;1.20;;;;;;;12.81;79.78;101396.16;7386078;19;20383;-76
2023/10/16 12:34:11;;;;;;;3.28;1.25;;;;;;;13.23;79.24;101381.66;7390792;19;20364;-76
2023/10/16 12:36:40;;;;;;;2.73;1.10;;;;;;;13.35;76.00;101385.63;7388762;19;20363;-76
2023/10/16 12:39:16;;;;;;;2.83;1.00;;;;;;;13.38;74.04;101379.09;7387030;19;20731;-76
2023/10/16 12:41:44;;;;;;;3.53;1.02;;;;;;;13.32;74.16;101380.63;7387461;19;20390;-76
2023/10/16 12:44:11;;;;;;;3.53;1.20;;;;;;;13.31;74.80;101384.31;7387463;19;20356;-76
2023/10/16 12:46:39;;;;;;;2.25;1.05;;;;;;;13.16;74.91;101381.53;7394962;19;20375;-75
2023/10/16 12:49:07;;;;;;;4.55;1.15;;;;;;;13.16;74.39;101380.72;7393424;19;20920;-75
2023/10/16 12:51:34;;;;;;;3.40;0.98;;;;;;;13.13;72.67;101381.03;7395061;19;20348;-75
2023/10/16 12:54:03;;;;;;;2.47;0.70;;;;;;;13.44;72.10;101373.88;7390565;19;20411;-75
2023/10/16 12:56:31;;;;;;;2.97;0.98;;;;;;;13.86;72.19;101372.56;7392360;19;20380;-76
2023/10/16 12:59:04;;;;;;;2.80;0.83;;;;;;;14.45;70.30;101366.50;7388460;19;21020;-76
2023/10/16 13:01:31;;;;;;;3.25;0.93;;;;;;;14.91;68.99;101370.81;7391749;19;20380;-76
2023/10/16 13:04:00;;;;;;;2.67;0.88;;;;;;;14.99;67.00;101368.03;7390534;19;20400;-75
2023/10/16 13:06:31;;;;;;;3.42;0.90;;;;;;;15.17;66.83;101369.44;7390923;19;20379;-75
2023/10/16 13:09:00;;;;;;;1.90;0.80;;;;;;;15.12;66.44;101370.03;7395225;19;20360;-75
2023/10/16 13:11:27;;;;;;;3.72;0.80;;;;;;;14.97;64.89;101363.91;7394227;19;20371;-75
2023/10/16 13:13:55;;;;;;;2.70;0.73;;;;;;;15.07;66.04;101359.91;7398312;19;20356;-75
2023/10/16 13:16:26;;;;;;;2.22;0.77;;;;;;;15.02;64.99;101366.81;7396597;19;20896;-75
2023/10/16 13:18:57;;;;;;;2.72;0.80;;;;;;;14.94;64.52;101357.09;7396311;19;20420;-75
2023/10/16 13:21:34;;;;;;;2.40;0.90;;;;;;;15.01;65.83;101366.00;7395561;19;20364;-75
2023/10/16 13:24:06;;;;;;;3.60;0.98;;;;;;;14.99;64.67;101368.03;7389902;19;20862;-75
2023/10/16 13:26:36;;;;;;;2.53;1.00;;;;;;;15.21;64.64;101370.72;7394301;19;20340;-75
2023/10/16 13:29:07;;;;;;;2.55;0.90;;;;;;;15.28;64.07;101371.66;7392381;19;20738;-75
2023/10/16 13:31:45;;;;;;;2.40;0.90;;;;;;;15.48;63.83;101374.53;7395366;19;20356;-75
2023/10/16 13:34:13;;;;;;;2.28;0.98;;;;;;;15.64;63.30;101376.94;7394523;19;20377;-75
2023/10/16 13:36:56;;;;;;;3.28;1.10;;;;;;;15.84;62.84;101365.63;7399026;19;20364;-75
2023/10/16 13:39:24;;;;;;;4.43;0.98;;;;;;;16.00;61.57;101369.84;7394498;19;20380;-75